Time;durP1;ratioP1;P1;durP2;ratioP2;P2;SDS_P1;SDS_P2;PMS_P1;PMS_P2;Temp;Humidity;BMP_temperature;BMP_pressure;BME280_temperature;BME280_humidity;BME280_pressure;Samples;Min_cycle;Max_cycle;Signal;HPM_P1;HPM_P2
2021/01/21 00:02:21;;;;;;;0.20;0.20;;;1.00;99.90;;;;;;5030371;28;20166;-72
2021/01/21 00:04:46;;;;;;;0.38;0.38;;;1.20;99.90;;;;;;5030337;28;20646;-72
2021/01/21 00:07:12;;;;;;;0.20;0.20;;;1.30;99.90;;;;;;5030325;28;20194;-72
2021/01/21 00:09:38;;;;;;;0.40;0.40;;;1.10;99.90;;;;;;5030301;28;20162;-72
2021/01/21 00:12:05;;;;;;;0.17;0.17;;;1.20;99.90;;;;;;5028805;28;20212;-73
2021/01/21 00:14:31;;;;;;;0.10;0.10;;;1.20;99.90;;;;;;5029882;28;20159;-73
2021/01/21 00:16:56;;;;;;;0.52;0.52;;;1.20;99.90;;;;;;5044932;28;20278;-72
2021/01/21 00:19:22;;;;;;;0.20;0.20;;;1.20;99.90;;;;;;5028492;28;20202;-74
2021/01/21 00:21:48;;;;;;;0.30;0.30;;;1.20;99.90;;;;;;5045143;28;20170;-72
2021/01/21 00:24:14;;;;;;;0.10;0.10;;;1.40;99.90;;;;;;5028448;28;20189;-73
2021/01/21 00:26:40;;;;;;;0.40;0.40;;;1.50;99.90;;;;;;5028361;28;20225;-73
2021/01/21 00:29:06;;;;;;;0.10;0.10;;;1.90;99.90;;;;;;5029765;28;20166;-73
2021/01/21 00:31:32;;;;;;;0.85;0.85;;;2.00;99.90;;;;;;5029837;28;20173;-72
2021/01/21 00:33:57;;;;;;;0.10;0.10;;;2.00;99.90;;;;;;5029745;28;20191;-73
2021/01/21 00:36:23;;;;;;;0.20;0.20;;;1.90;99.90;;;;;;5029415;28;20173;-74
2021/01/21 00:38:49;;;;;;;0.10;0.10;;;1.70;99.90;;;;;;5028147;28;20261;-72
2021/01/21 00:41:15;;;;;;;1.17;1.13;;;1.50;99.90;;;;;;5028254;28;20162;-73
2021/01/21 00:43:40;;;;;;;2.83;0.90;;;1.50;99.90;;;;;;5028837;28;20226;-74
2021/01/21 00:46:06;;;;;;;0.10;0.10;;;1.50;99.90;;;;;;5026750;28;20182;-73
2021/01/21 00:48:32;;;;;;;0.10;0.10;;;1.40;99.90;;;;;;5024401;28;20242;-73
2021/01/21 00:50:58;;;;;;;0.32;0.32;;;1.40;99.90;;;;;;5027048;28;20671;-73
2021/01/21 00:53:23;;;;;;;0.25;0.25;;;1.30;99.90;;;;;;5027415;28;20556;-73
2021/01/21 00:55:49;;;;;;;0.10;0.10;;;1.30;99.90;;;;;;5027503;28;20175;-73
2021/01/21 00:58:15;;;;;;;0.30;0.30;;;2.20;99.90;;;;;;5027328;28;20181;-72
2021/01/21 01:00:41;;;;;;;0.13;0.13;;;2.70;99.90;;;;;;5028729;28;20162;-73
2021/01/21 01:03:09;;;;;;;2.03;0.77;;;3.00;99.90;;;;;;5029159;28;20193;-73
2021/01/21 01:05:36;;;;;;;0.20;0.20;;;2.90;99.90;;;;;;5027964;28;20169;-73
2021/01/21 01:08:02;;;;;;;0.80;0.80;;;2.80;99.90;;;;;;5029077;28;20181;-73
2021/01/21 01:10:28;;;;;;;0.10;0.10;;;2.60;99.90;;;;;;5029078;28;20220;-73
2021/01/21 01:12:54;;;;;;;0.57;0.57;;;2.50;99.90;;;;;;5028968;28;20256;-73
2021/01/21 01:15:27;;;;;;;0.20;0.20;;;2.50;99.90;;;;;;5029115;28;20592;-73
2021/01/21 01:17:53;;;;;;;0.30;0.30;;;2.80;99.90;;;;;;5044101;28;20243;-73
2021/01/21 01:20:19;;;;;;;0.15;0.15;;;2.90;99.90;;;;;;5028805;28;20344;-73
2021/01/21 01:22:53;;;;;;;0.28;0.28;;;2.90;99.90;;;;;;5028842;28;20209;-73
2021/01/21 01:25:20;;;;;;;0.10;0.10;;;2.90;99.90;;;;;;5027711;28;20216;-73
2021/01/21 01:27:47;;;;;;;0.10;0.10;;;3.10;99.90;;;;;;5027674;28;20551;-73
2021/01/21 01:30:14;;;;;;;0.30;0.30;;;3.40;99.90;;;;;;5027429;28;20197;-73
2021/01/21 01:32:40;;;;;;;0.10;0.10;;;3.70;99.90;;;;;;5028650;28;20194;-71
2021/01/21 01:35:07;;;;;;;0.43;0.43;;;3.60;99.90;;;;;;5028721;28;20154;-73
2021/01/21 01:37:33;;;;;;;0.10;0.10;;;3.40;99.90;;;;;;5027209;28;20202;-73
2021/01/21 01:39:59;;;;;;;0.45;0.45;;;3.30;99.90;;;;;;5028679;28;20170;-73
2021/01/21 01:42:26;;;;;;;1.08;1.05;;;3.20;99.90;;;;;;5028196;28;20683;-73
2021/01/21 01:44:51;;;;;;;0.20;0.20;;;3.20;99.90;;;;;;5028517;28;20180;-73
2021/01/21 01:47:19;;;;;;;0.10;0.10;;;3.20;99.90;;;;;;5028549;28;20182;-72
2021/01/21 01:49:46;;;;;;;0.10;0.10;;;3.10;99.90;;;;;;5028598;28;20153;-73
2021/01/21 01:52:12;;;;;;;0.10;0.10;;;2.90;99.90;;;;;;5026987;28;20331;-73
2021/01/21 01:54:41;;;;;;;0.28;0.28;;;2.80;99.90;;;;;;5028451;28;20241;-73
2021/01/21 01:57:07;;;;;;;0.20;0.20;;;2.80;99.90;;;;;;5027082;28;20241;-73
2021/01/21 01:59:38;;;;;;;0.10;0.10;;;2.70;99.90;;;;;;5029794;28;20189;-73
2021/01/21 02:02:04;;;;;;;0.10;0.10;;;2.60;99.90;;;;;;5032441;28;20249;-73
2021/01/21 02:04:29;;;;;;;0.10;0.10;;;2.50;99.90;;;;;;5031171;28;20185;-73
2021/01/21 02:06:55;;;;;;;0.10;0.10;;;2.30;99.90;;;;;;5032490;28;20221;-73
2021/01/21 02:09:22;;;;;;;0.68;0.68;;;2.20;99.90;;;;;;5032491;28;20181;-73
2021/01/21 02:12:13;;;;;;;0.47;0.47;;;2.00;99.90;;;;;;5032357;28;20229;-73
2021/01/21 02:14:39;;;;;;;0.10;0.10;;;1.70;99.90;;;;;;5032220;28;20292;-73
2021/01/21 02:17:11;;;;;;;0.05;0.05;;;1.60;99.90;;;;;;5030891;28;20253;-73
2021/01/21 02:19:44;;;;;;;0.68;0.43;;;1.60;99.90;;;;;;5032221;28;20531;-72
2021/01/21 02:22:19;;;;;;;0.10;0.10;;;1.60;99.90;;;;;;5030879;28;20225;-72
2021/01/21 02:25:09;;;;;;;0.00;0.00;;;1.70;99.90;;;;;;5030731;28;20200;-73
2021/01/21 02:27:56;;;;;;;0.10;0.10;;;1.60;99.90;;;;;;5032022;28;20166;-73
2021/01/21 02:30:49;;;;;;;0.10;0.10;;;1.50;99.90;;;;;;5032062;28;20169;-73
2021/01/21 02:33:26;;;;;;;0.10;0.10;;;1.50;99.90;;;;;;5031932;28;20240;-73
2021/01/21 02:35:53;;;;;;;2.78;2.17;;;1.40;99.90;;;;;;5030634;28;20233;-72
2021/01/21 02:38:21;;;;;;;0.10;0.10;;;1.30;99.90;;;;;;5030518;28;20214;-72
2021/01/21 02:40:49;;;;;;;0.10;0.10;;;1.20;99.90;;;;;;5031895;28;20245;-73
2021/01/21 02:43:15;;;;;;;0.10;0.10;;;1.20;99.90;;;;;;5031552;28;20236;-73
2021/01/21 02:45:40;;;;;;;0.10;0.10;;;0.90;99.90;;;;;;5030463;28;20194;-73
2021/01/21 02:48:07;;;;;;;0.13;0.13;;;0.90;99.90;;;;;;5031730;28;20171;-73
2021/01/21 02:50:33;;;;;;;0.15;0.15;;;0.90;99.90;;;;;;5031803;28;20170;-73
2021/01/21 02:53:01;;;;;;;0.20;0.20;;;0.70;99.90;;;;;;5030255;28;20201;-72
2021/01/21 02:55:46;;;;;;;0.25;0.25;;;0.80;99.90;;;;;;5031660;28;20178;-73
2021/01/21 02:58:31;;;;;;;0.15;0.15;;;0.70;99.90;;;;;;5031614;28;20289;-73
2021/01/21 03:01:01;;;;;;;0.10;0.10;;;0.70;99.90;;;;;;5031557;28;20158;-73
2021/01/21 03:03:29;;;;;;;0.10;0.10;;;0.70;99.90;;;;;;5031513;28;20253;-72
2021/01/21 03:05:57;;;;;;;0.10;0.10;;;0.80;99.90;;;;;;5031474;28;20177;-73
2021/01/21 03:08:26;;;;;;;0.10;0.10;;;0.80;99.90;;;;;;5031286;28;20249;-73
2021/01/21 03:11:08;;;;;;;0.10;0.10;;;0.80;99.90;;;;;;5030175;28;20166;-73
2021/01/21 03:13:34;;;;;;;0.20;0.20;;;0.90;99.90;;;;;;5029871;28;20198;-72
2021/01/21 03:16:00;;;;;;;0.10;0.10;;;0.90;99.90;;;;;;5030270;28;20196;-73
2021/01/21 03:18:26;;;;;;;0.10;0.10;;;1.00;99.90;;;;;;5029798;28;20205;-73
2021/01/21 03:20:52;;;;;;;0.17;0.17;;;1.00;99.90;;;;;;5031280;28;20177;-72
2021/01/21 03:23:17;;;;;;;0.68;0.68;;;1.00;99.90;;;;;;5031083;28;20201;-73
2021/01/21 03:25:44;;;;;;;0.68;0.68;;;1.00;99.90;;;;;;5030869;28;20169;-73
2021/01/21 03:28:09;;;;;;;0.47;0.47;;;1.10;99.90;;;;;;5030848;28;20166;-72
2021/01/21 03:30:35;;;;;;;0.75;0.75;;;1.10;99.90;;;;;;5029502;28;20177;-74
2021/01/21 03:33:01;;;;;;;0.10;0.10;;;1.40;99.90;;;;;;5030638;28;20243;-74
2021/01/21 03:35:27;;;;;;;0.10;0.10;;;1.50;99.90;;;;;;5030796;28;20277;-73
2021/01/21 03:37:53;;;;;;;0.10;0.10;;;2.10;99.90;;;;;;5030793;28;20270;-74
2021/01/21 03:40:19;;;;;;;0.10;0.10;;;3.00;99.90;;;;;;5029452;28;20189;-73
2021/01/21 03:42:44;;;;;;;0.20;0.20;;;3.60;99.90;;;;;;5028975;28;20280;-73
2021/01/21 03:45:11;;;;;;;0.00;0.00;;;4.00;99.90;;;;;;5030484;28;20162;-74
2021/01/21 03:47:37;;;;;;;1.05;1.05;;;6.50;99.90;;;;;;5030462;28;20228;-74
2021/01/21 03:50:04;;;;;;;0.10;0.10;;;7.90;99.90;;;;;;5029148;28;20174;-73
2021/01/21 03:52:29;;;;;;;0.10;0.10;;;8.20;99.90;;;;;;5028999;28;20197;-73
2021/01/21 03:54:55;;;;;;;0.10;0.10;;;8.40;99.90;;;;;;5029872;28;20685;-73
2021/01/21 03:57:21;;;;;;;0.10;0.10;;;8.90;99.90;;;;;;5028811;28;20485;-72
2021/01/21 03:59:46;;;;;;;0.10;0.10;;;8.70;99.90;;;;;;5030114;28;20238;-73
2021/01/21 04:02:12;;;;;;;0.10;0.10;;;8.90;99.90;;;;;;5028781;28;20208;-73
2021/01/21 04:04:38;;;;;;;0.10;0.10;;;8.90;99.90;;;;;;5028654;28;20170;-72
2021/01/21 04:07:04;;;;;;;0.08;0.08;;;8.70;99.90;;;;;;5030131;28;20154;-72
2021/01/21 04:09:30;;;;;;;0.10;0.10;;;8.50;99.90;;;;;;5030019;28;20649;-73
2021/01/21 04:11:56;;;;;;;0.10;0.10;;;8.60;99.90;;;;;;5028541;28;20176;-73
2021/01/21 04:14:21;;;;;;;0.00;0.00;;;8.90;99.90;;;;;;5030090;28;20220;-73
2021/01/21 04:16:47;;;;;;;0.00;0.00;;;9.00;99.90;;;;;;5029965;28;20162;-72
2021/01/21 04:19:13;;;;;;;0.10;0.10;;;9.10;99.90;;;;;;5028521;28;20200;-72
2021/01/21 04:21:39;;;;;;;0.10;0.10;;;9.10;99.90;;;;;;5029429;28;20158;-73
2021/01/21 04:24:05;;;;;;;0.10;0.10;;;8.90;99.90;;;;;;5029867;28;20155;-73
2021/01/21 04:26:31;;;;;;;0.10;0.10;;;8.70;99.90;;;;;;5029935;28;20249;-73
2021/01/21 04:28:57;;;;;;;0.15;0.15;;;8.50;99.90;;;;;;5029637;28;20166;-73
2021/01/21 04:31:23;;;;;;;0.10;0.10;;;8.50;99.90;;;;;;5029652;28;20165;-72
2021/01/21 04:33:49;;;;;;;0.10;0.10;;;8.80;99.90;;;;;;5029549;28;20193;-73
2021/01/21 04:36:15;;;;;;;0.13;0.13;;;9.00;99.90;;;;;;5028208;28;20174;-72
2021/01/21 04:38:41;;;;;;;0.10;0.10;;;9.20;99.90;;;;;;5028047;28;20193;-73
2021/01/21 04:41:07;;;;;;;0.10;0.10;;;9.30;99.90;;;;;;5028116;28;20193;-71
2021/01/21 04:43:33;;;;;;;0.10;0.10;;;9.50;99.90;;;;;;5029253;28;20695;-72
2021/01/21 04:45:59;;;;;;;0.10;0.10;;;9.60;99.90;;;;;;5028076;28;20220;-73
2021/01/21 04:48:25;;;;;;;0.03;0.03;;;9.70;99.90;;;;;;5027726;28;20203;-73
2021/01/21 04:50:53;;;;;;;0.13;0.13;;;9.60;99.90;;;;;;5029369;28;20190;-72
2021/01/21 04:53:24;;;;;;;0.10;0.10;;;9.40;99.90;;;;;;5029144;28;20190;-73
2021/01/21 04:55:56;;;;;;;0.10;0.10;;;9.40;99.90;;;;;;5029225;28;20185;-74
2021/01/21 04:58:35;;;;;;;0.10;0.10;;;9.50;99.90;;;;;;5028969;28;20190;-72
2021/01/21 05:01:02;;;;;;;0.10;0.10;;;9.60;99.90;;;;;;5028755;28;20638;-72
2021/01/21 05:03:28;;;;;;;0.10;0.10;;;9.80;99.90;;;;;;5029125;28;20636;-72
2021/01/21 05:05:55;;;;;;;0.10;0.10;;;9.70;99.90;;;;;;5027546;28;20180;-72
2021/01/21 05:08:23;;;;;;;0.10;0.10;;;9.70;99.90;;;;;;5029018;28;20165;-73
2021/01/21 05:10:50;;;;;;;0.10;0.10;;;9.60;99.90;;;;;;5028961;28;20571;-72
2021/01/21 05:13:17;;;;;;;0.10;0.10;;;9.70;99.90;;;;;;5028874;28;20190;-73
2021/01/21 05:15:43;;;;;;;0.10;0.10;;;9.70;99.90;;;;;;5028485;28;20174;-73
2021/01/21 05:18:12;;;;;;;0.10;0.10;;;9.60;99.90;;;;;;5028615;28;20197;-72
2021/01/21 05:20:38;;;;;;;0.10;0.10;;;9.70;99.90;;;;;;5028610;28;20218;-73
2021/01/21 05:23:05;;;;;;;0.13;0.13;;;9.70;99.90;;;;;;5028630;28;20667;-72
2021/01/21 05:25:31;;;;;;;0.10;0.10;;;9.50;99.90;;;;;;5027491;28;20277;-73
2021/01/21 05:27:59;;;;;;;0.10;0.10;;;9.40;99.90;;;;;;5027194;28;20170;-73
2021/01/21 05:30:29;;;;;;;0.10;0.10;;;9.30;99.90;;;;;;5028616;28;20172;-72
2021/01/21 05:32:57;;;;;;;0.10;0.10;;;9.30;99.90;;;;;;5027943;28;20194;-73
2021/01/21 05:35:27;;;;;;;0.00;0.00;;;9.30;99.90;;;;;;5028364;28;20181;-72
2021/01/21 05:37:56;;;;;;;0.10;0.10;;;9.30;99.90;;;;;;5028534;28;20193;-74
2021/01/21 05:40:29;;;;;;;0.40;0.40;;;9.40;99.90;;;;;;5028483;28;20162;-74
2021/01/21 05:42:56;;;;;;;0.10;0.10;;;9.60;99.90;;;;;;5028140;28;20217;-74
2021/01/21 05:45:24;;;;;;;0.30;0.30;;;8.90;99.90;;;;;;5028276;28;20173;-73
2021/01/21 05:47:58;;;;;;;0.43;0.43;;;8.20;99.90;;;;;;5027070;28;20170;-73
2021/01/21 05:50:29;;;;;;;0.10;0.10;;;7.90;99.90;;;;;;5028319;28;20181;-73
2021/01/21 05:52:56;;;;;;;1.05;0.40;;;8.20;99.90;;;;;;5028170;28;20226;-73
2021/01/21 05:55:27;;;;;;;0.10;0.10;;;8.20;99.90;;;;;;5026744;28;20182;-74
2021/01/21 05:57:57;;;;;;;0.10;0.10;;;7.90;99.90;;;;;;5026837;28;20278;-73
2021/01/21 06:00:26;;;;;;;0.10;0.10;;;7.80;99.90;;;;;;5028200;28;20249;-73
2021/01/21 06:02:53;;;;;;;0.10;0.10;;;8.10;99.90;;;;;;5028193;28;20209;-74
2021/01/21 06:05:21;;;;;;;0.60;0.60;;;8.40;99.90;;;;;;5026868;28;20172;-74
2021/01/21 06:07:48;;;;;;;0.03;0.03;;;8.50;99.90;;;;;;5028040;28;20162;-72
2021/01/21 06:10:15;;;;;;;0.28;0.28;;;8.50;99.90;;;;;;5043209;28;20170;-72
2021/01/21 06:12:46;;;;;;;0.10;0.10;;;8.30;99.90;;;;;;5042964;28;20194;-73
2021/01/21 06:15:14;;;;;;;0.55;0.55;;;8.40;99.90;;;;;;5026897;28;20728;-73
2021/01/21 06:17:45;;;;;;;1.05;0.68;;;8.30;99.90;;;;;;5027870;28;20244;-73
2021/01/21 06:20:12;;;;;;;0.05;0.05;;;8.00;99.90;;;;;;5026675;28;20217;-73
2021/01/21 06:22:46;;;;;;;0.10;0.10;;;7.90;99.90;;;;;;5028048;28;20208;-73
2021/01/21 06:25:17;;;;;;;0.10;0.10;;;7.70;99.90;;;;;;5028078;28;20194;-72
2021/01/21 06:27:44;;;;;;;0.75;0.75;;;7.60;99.90;;;;;;5027796;28;20174;-73
2021/01/21 06:30:19;;;;;;;0.10;0.10;;;7.40;99.90;;;;;;5026569;28;20182;-73
2021/01/21 06:33:04;;;;;;;0.57;0.57;;;7.40;99.90;;;;;;5026370;28;20197;-73
2021/01/21 06:35:35;;;;;;;0.10;0.10;;;7.40;99.90;;;;;;5027726;28;20164;-74
2021/01/21 06:38:07;;;;;;;0.88;0.57;;;7.30;99.90;;;;;;5026491;28;20194;-74
2021/01/21 06:40:35;;;;;;;0.85;0.85;;;7.00;99.90;;;;;;5027707;28;20224;-73
2021/01/21 06:43:10;;;;;;;0.32;0.32;;;7.00;99.90;;;;;;5025873;28;20326;-74
2021/01/21 06:45:38;;;;;;;0.10;0.10;;;7.10;99.90;;;;;;5030119;28;20154;-73
2021/01/21 06:48:05;;;;;;;0.10;0.10;;;7.20;99.90;;;;;;5029944;28;20170;-73
2021/01/21 06:50:31;;;;;;;0.20;0.20;;;7.60;99.90;;;;;;5031324;28;20162;-73
2021/01/21 06:53:00;;;;;;;1.27;1.20;;;7.50;99.90;;;;;;5031372;28;20255;-73
2021/01/21 06:55:27;;;;;;;0.50;0.47;;;7.20;99.90;;;;;;5030052;28;20261;-74
2021/01/21 06:57:53;;;;;;;0.65;0.65;;;7.00;99.90;;;;;;5031239;28;20297;-74
2021/01/21 07:00:38;;;;;;;2.35;0.85;;;6.70;99.90;;;;;;5031405;28;20166;-73
2021/01/21 07:03:05;;;;;;;1.60;0.45;;;6.50;99.90;;;;;;5031024;28;20266;-74
2021/01/21 07:05:31;;;;;;;0.20;0.20;;;6.30;99.90;;;;;;5031304;28;20192;-74
2021/01/21 07:08:01;;;;;;;0.38;0.38;;;6.10;99.90;;;;;;5031023;28;20166;-73
2021/01/21 07:10:44;;;;;;;0.47;0.47;;;5.90;99.90;;;;;;5029587;28;20174;-73
2021/01/21 07:13:16;;;;;;;0.25;0.25;;;5.80;99.90;;;;;;5030974;28;20228;-74
2021/01/21 07:15:43;;;;;;;0.43;0.43;;;5.80;99.90;;;;;;5031071;28;20169;-72
2021/01/21 07:18:18;;;;;;;0.10;0.10;;;6.00;99.90;;;;;;5030949;28;20247;-73
2021/01/21 07:20:59;;;;;;;0.32;0.32;;;6.00;99.90;;;;;;5029478;28;20174;-73
2021/01/21 07:23:47;;;;;;;0.20;0.20;;;5.70;99.90;;;;;;5029407;28;20221;-73
2021/01/21 07:26:34;;;;;;;0.10;0.10;;;5.60;99.90;;;;;;5030715;28;20173;-72
2021/01/21 07:29:19;;;;;;;0.50;0.50;;;5.80;99.90;;;;;;5029675;28;20245;-73
2021/01/21 07:31:55;;;;;;;0.35;0.35;;;6.00;99.90;;;;;;5029042;28;20177;-72
2021/01/21 07:34:40;;;;;;;0.47;0.47;;;5.90;99.90;;;;;;5029180;28;20599;-72
2021/01/21 07:37:17;;;;;;;0.20;0.20;;;5.80;99.90;;;;;;5029364;28;20174;-72
2021/01/21 07:39:52;;;;;;;0.10;0.10;;;6.10;99.90;;;;;;5028744;28;20205;-72
2021/01/21 07:42:19;;;;;;;0.10;0.10;;;6.70;99.90;;;;;;5028884;28;20224;-72
2021/01/21 07:44:55;;;;;;;0.10;0.10;;;7.20;99.90;;;;;;5029196;28;20182;-72
2021/01/21 07:47:41;;;;;;;0.88;0.80;;;7.70;99.90;;;;;;5030420;28;20296;-72
2021/01/21 07:50:19;;;;;;;2.17;0.47;;;9.00;99.90;;;;;;5029049;28;20232;-74
2021/01/21 07:52:57;;;;;;;0.00;0.00;;;9.10;99.90;;;;;;5030350;28;20185;-73
2021/01/21 07:55:32;;;;;;;0.10;0.10;;;9.10;99.90;;;;;;5028890;28;20176;-72
2021/01/21 07:58:23;;;;;;;0.00;0.00;;;9.50;99.90;;;;;;5028386;28;20196;-73
2021/01/21 08:01:09;;;;;;;0.32;0.32;;;9.80;99.90;;;;;;5028687;28;20232;-73
2021/01/21 08:03:38;;;;;;;0.13;0.13;;;9.60;99.90;;;;;;5029913;28;20230;-74
2021/01/21 08:06:10;;;;;;;0.20;0.20;;;9.40;99.90;;;;;;5011094;28;20171;-73
2021/01/21 08:08:37;;;;;;;0.28;0.28;;;9.20;99.90;;;;;;5010351;28;20190;-74
2021/01/21 08:11:06;;;;;;;0.40;0.30;;;9.20;99.90;;;;;;5008987;28;20162;-73
2021/01/21 08:13:33;;;;;;;2.28;0.55;;;9.10;99.90;;;;;;5009836;28;20194;-73
2021/01/21 08:15:59;;;;;;;0.20;0.20;;;9.30;99.90;;;;;;5013058;28;20375;-72
2021/01/21 08:18:25;;;;;;;0.10;0.10;;;9.40;99.90;;;;;;5032081;28;20201;-71
2021/01/21 08:20:51;;;;;;;0.10;0.10;;;9.60;99.90;;;;;;5029997;28;20268;-72
2021/01/21 08:23:17;;;;;;;0.05;0.05;;;9.80;99.90;;;;;;5029393;28;20189;-72
2021/01/21 08:25:45;;;;;;;0.15;0.15;;;9.90;99.90;;;;;;5028257;28;20170;-72
2021/01/21 08:28:15;;;;;;;0.10;0.10;;;9.60;99.90;;;;;;5029536;28;20169;-72
2021/01/21 08:30:41;;;;;;;0.52;0.52;;;9.60;99.90;;;;;;5029578;28;20225;-72
2021/01/21 08:33:13;;;;;;;0.30;0.30;;;9.60;99.90;;;;;;5029269;28;20190;-73
2021/01/21 08:36:01;;;;;;;0.00;0.00;;;9.70;99.90;;;;;;5028220;28;20224;-73
2021/01/21 08:38:32;;;;;;;0.10;0.10;;;9.60;99.90;;;;;;5029556;28;20499;-72
2021/01/21 08:40:59;;;;;;;0.10;0.10;;;9.20;99.90;;;;;;5029417;28;20154;-72
2021/01/21 08:43:25;;;;;;;0.10;0.10;;;9.00;99.90;;;;;;5029206;28;20221;-72
2021/01/21 08:45:52;;;;;;;0.20;0.20;;;9.20;99.90;;;;;;5029369;28;20169;-72
2021/01/21 08:48:44;;;;;;;0.30;0.30;;;9.00;99.90;;;;;;5029433;28;20292;-72
2021/01/21 08:51:34;;;;;;;0.13;0.13;;;8.80;99.90;;;;;;5027419;28;20190;-72
2021/01/21 08:54:20;;;;;;;0.25;0.25;;;8.60;99.90;;;;;;5029218;28;20209;-72
2021/01/21 08:57:08;;;;;;;0.10;0.10;;;8.40;99.90;;;;;;5028108;28;20240;-72
2021/01/21 08:59:35;;;;;;;0.10;0.10;;;8.30;99.90;;;;;;5027158;28;20228;-72
2021/01/21 09:02:01;;;;;;;0.90;0.90;;;8.20;99.90;;;;;;5028140;28;20430;-72
2021/01/21 09:04:31;;;;;;;0.20;0.20;;;8.20;99.90;;;;;;5027933;28;20166;-72
2021/01/21 09:06:59;;;;;;;0.57;0.57;;;8.10;99.90;;;;;;5025656;28;20170;-72
2021/01/21 09:09:26;;;;;;;1.30;0.90;;;8.20;99.90;;;;;;5024483;28;20261;-73
2021/01/21 09:11:52;;;;;;;0.30;0.30;;;8.10;99.90;;;;;;5027094;28;20807;-72
2021/01/21 09:14:19;;;;;;;0.73;0.73;;;8.10;99.90;;;;;;5025566;28;20244;-73
2021/01/21 09:16:45;;;;;;;0.57;0.57;;;7.90;99.90;;;;;;5027002;28;20312;-72
2021/01/21 09:19:35;;;;;;;0.17;0.17;;;7.80;99.90;;;;;;5026796;28;20209;-73
2021/01/21 09:22:07;;;;;;;0.10;0.10;;;7.90;99.90;;;;;;5021824;28;20189;-72
2021/01/21 09:24:34;;;;;;;1.88;0.82;;;7.90;99.90;;;;;;5027292;28;20194;-73
2021/01/21 09:27:16;;;;;;;0.10;0.10;;;7.90;99.90;;;;;;5027301;28;20170;-72
2021/01/21 09:29:53;;;;;;;0.10;0.10;;;8.10;99.90;;;;;;5027134;28;20201;-73
2021/01/21 09:32:20;;;;;;;0.63;0.63;;;8.40;99.90;;;;;;5027182;28;20174;-73
2021/01/21 09:35:13;;;;;;;0.10;0.10;;;8.50;99.90;;;;;;5028524;28;20162;-72
2021/01/21 09:37:47;;;;;;;0.20;0.20;;;8.40;99.90;;;;;;5026559;28;20194;-73
2021/01/21 09:40:34;;;;;;;0.25;0.25;;;8.50;99.90;;;;;;5028435;28;20158;-72
2021/01/21 09:43:04;;;;;;;0.10;0.10;;;8.70;99.90;;;;;;5028088;28;20206;-72
2021/01/21 09:45:31;;;;;;;0.10;0.10;;;8.90;99.90;;;;;;5027106;28;20181;-72
2021/01/21 09:47:57;;;;;;;0.30;0.30;;;9.10;99.90;;;;;;5028396;28;20159;-72
2021/01/21 09:50:24;;;;;;;0.10;0.10;;;9.30;99.90;;;;;;5027110;28;20253;-72
2021/01/21 09:52:50;;;;;;;0.10;0.10;;;9.40;99.90;;;;;;5028475;28;20269;-71
2021/01/21 09:55:17;;;;;;;1.25;1.15;;;9.60;99.90;;;;;;5028327;28;20178;-72
2021/01/21 09:57:43;;;;;;;1.30;1.27;;;9.90;99.90;;;;;;5028230;28;20229;-71
2021/01/21 10:00:12;;;;;;;0.10;0.10;;;10.10;99.90;;;;;;5043419;28;20200;-72
2021/01/21 10:02:38;;;;;;;1.45;1.13;;;10.10;99.90;;;;;;5028048;28;20193;-72
2021/01/21 10:05:06;;;;;;;0.15;0.15;;;10.20;99.90;;;;;;5028212;28;20177;-72
2021/01/21 10:07:32;;;;;;;0.22;0.22;;;10.30;99.90;;;;;;5028410;28;20205;-74
2021/01/21 10:09:58;;;;;;;0.30;0.15;;;10.60;99.90;;;;;;5028013;28;20190;-72
2021/01/21 10:12:24;;;;;;;0.10;0.10;;;11.20;99.90;;;;;;5027225;28;20173;-71
2021/01/21 10:14:50;;;;;;;0.28;0.28;;;11.90;99.90;;;;;;5028413;28;20214;-72
2021/01/21 10:17:16;;;;;;;0.17;0.17;;;12.50;99.90;;;;;;5028497;28;20237;-73
2021/01/21 10:19:42;;;;;;;0.25;0.25;;;12.80;99.90;;;;;;5029701;28;20208;-73
2021/01/21 10:22:08;;;;;;;0.10;0.10;;;12.70;99.90;;;;;;5031079;28;20166;-73
2021/01/21 10:24:35;;;;;;;8.20;1.70;;;12.40;99.90;;;;;;5030653;28;20167;-74
2021/01/21 10:27:01;;;;;;;0.20;0.20;;;12.20;99.90;;;;;;5032118;28;20663;-75
2021/01/21 10:29:27;;;;;;;1.40;1.30;;;12.30;99.90;;;;;;5031472;28;20194;-75
2021/01/21 10:31:53;;;;;;;0.17;0.17;;;12.20;99.90;;;;;;5031643;28;20176;-74
2021/01/21 10:34:19;;;;;;;0.90;0.52;;;12.30;99.90;;;;;;5029967;28;20166;-74
2021/01/21 10:36:45;;;;;;;0.10;0.10;;;12.40;99.90;;;;;;5033926;28;20236;-74
2021/01/21 10:39:11;;;;;;;0.63;0.40;;;12.70;99.90;;;;;;5029670;28;20212;-74
2021/01/21 10:41:37;;;;;;;0.63;0.63;;;13.10;99.90;;;;;;5031539;28;20208;-74
2021/01/21 10:44:03;;;;;;;6.10;1.45;;;13.30;99.90;;;;;;5031629;28;20193;-74
2021/01/21 10:46:28;;;;;;;0.10;0.10;;;13.80;99.90;;;;;;5031430;28;20163;-74
2021/01/21 10:48:54;;;;;;;0.40;0.40;;;14.10;99.90;;;;;;5046311;28;20224;-74
2021/01/21 10:51:20;;;;;;;7.53;0.90;;;14.10;99.90;;;;;;5051127;28;20174;-74
2021/01/21 10:53:46;;;;;;;0.10;0.10;;;13.50;99.90;;;;;;5043280;28;20304;-74
2021/01/21 10:56:14;;;;;;;1.63;1.08;;;13.50;99.90;;;;;;5026580;28;20174;-73
2021/01/21 10:58:40;;;;;;;0.32;0.32;;;13.10;99.90;;;;;;5011472;28;20210;-74
2021/01/21 11:01:06;;;;;;;0.10;0.10;;;13.00;99.90;;;;;;5011541;28;20699;-74
2021/01/21 11:03:32;;;;;;;0.10;0.10;;;13.10;99.90;;;;;;5017816;28;20237;-72
2021/01/21 11:05:57;;;;;;;6.78;0.50;;;13.30;99.90;;;;;;5031094;28;20188;-74
2021/01/21 11:08:23;;;;;;;0.20;0.20;;;13.50;99.90;;;;;;5030882;28;20280;-74
2021/01/21 11:10:49;;;;;;;2.40;1.85;;;13.50;99.90;;;;;;5031030;28;20208;-72
2021/01/21 11:13:18;;;;;;;0.10;0.10;;;13.30;99.90;;;;;;5031008;28;20184;-72
2021/01/21 11:15:48;;;;;;;0.10;0.10;;;13.00;99.90;;;;;;5046230;28;20178;-72
2021/01/21 11:18:15;;;;;;;0.10;0.10;;;13.30;99.90;;;;;;5030121;28;20276;-72
2021/01/21 11:20:41;;;;;;;0.90;0.55;;;13.10;99.90;;;;;;5030722;28;20623;-73
2021/01/21 11:23:08;;;;;;;0.43;0.43;;;12.70;99.90;;;;;;5030079;28;20162;-73
2021/01/21 11:25:34;;;;;;;0.80;0.80;;;12.60;99.90;;;;;;5030719;28;20166;-73
2021/01/21 11:28:00;;;;;;;1.15;1.10;;;12.60;99.90;;;;;;5029211;28;20237;-73
2021/01/21 11:30:26;;;;;;;0.57;0.57;;;12.60;99.90;;;;;;5045856;28;20173;-73
2021/01/21 11:32:52;;;;;;;0.00;0.00;;;12.60;99.90;;;;;;5029808;28;20178;-73
2021/01/21 11:35:18;;;;;;;0.10;0.10;;;12.50;99.90;;;;;;5030653;28;20173;-73
2021/01/21 11:37:44;;;;;;;0.63;0.63;;;12.50;99.90;;;;;;5029178;28;20182;-73
2021/01/21 11:40:10;;;;;;;0.57;0.57;;;12.30;99.90;;;;;;5030373;28;20396;-73
2021/01/21 11:42:38;;;;;;;0.20;0.20;;;12.30;99.90;;;;;;5030169;28;20273;-73
2021/01/21 11:45:05;;;;;;;0.50;0.50;;;12.30;99.90;;;;;;5045403;28;20277;-72
2021/01/21 11:47:39;;;;;;;0.20;0.20;;;12.50;99.90;;;;;;5029040;28;20238;-72
2021/01/21 11:50:07;;;;;;;1.27;0.25;;;12.90;99.90;;;;;;5029948;28;20296;-72
2021/01/21 11:52:33;;;;;;;1.17;1.17;;;13.30;99.90;;;;;;5029331;28;20237;-73
2021/01/21 11:54:59;;;;;;;0.30;0.30;;;13.20;99.90;;;;;;5029582;28;20226;-72
2021/01/21 11:57:24;;;;;;;0.22;0.22;;;13.10;99.90;;;;;;5030328;28;20177;-71
2021/01/21 11:59:50;;;;;;;0.10;0.10;;;13.00;99.90;;;;;;5030115;28;20201;-72
2021/01/21 12:02:16;;;;;;;0.08;0.08;;;12.80;99.90;;;;;;5030042;28;20162;-72
2021/01/21 12:04:41;;;;;;;0.10;0.10;;;12.50;99.90;;;;;;5045014;28;20193;-72
2021/01/21 12:07:07;;;;;;;0.15;0.15;;;12.50;99.90;;;;;;5029954;28;20173;-72
2021/01/21 12:09:33;;;;;;;0.10;0.10;;;12.40;99.90;;;;;;5045194;28;20193;-72
2021/01/21 12:11:59;;;;;;;0.10;0.10;;;12.30;99.90;;;;;;5029921;28;20169;-72
2021/01/21 12:14:24;;;;;;;0.13;0.13;;;12.20;99.90;;;;;;5029707;28;20166;-72
2021/01/21 12:16:50;;;;;;;0.10;0.10;;;12.40;99.90;;;;;;5029930;28;20161;-72
2021/01/21 12:19:16;;;;;;;3.60;0.43;;;12.40;99.90;;;;;;5029784;28;20311;-72
2021/01/21 12:21:42;;;;;;;0.20;0.20;;;12.30;99.90;;;;;;5029977;28;20158;-72
2021/01/21 12:24:08;;;;;;;1.65;1.27;;;12.20;99.90;;;;;;5028697;28;20163;-72
2021/01/21 12:26:35;;;;;;;0.10;0.10;;;11.90;99.90;;;;;;5029555;28;20250;-71
2021/01/21 12:29:02;;;;;;;0.20;0.20;;;11.90;99.90;;;;;;5029879;28;20220;-72
2021/01/21 12:31:28;;;;;;;0.75;0.75;;;11.80;99.90;;;;;;5029735;28;20158;-72
2021/01/21 12:33:55;;;;;;;0.47;0.47;;;11.80;99.90;;;;;;5029926;28;20162;-72
2021/01/21 12:36:22;;;;;;;14.70;1.30;;;11.80;99.90;;;;;;5029628;28;20202;-72
2021/01/21 12:38:48;;;;;;;0.63;0.63;;;11.80;99.90;;;;;;5029481;28;20200;-72
2021/01/21 12:41:13;;;;;;;2.05;1.65;;;11.90;99.90;;;;;;5027970;28;20178;-72
2021/01/21 12:43:39;;;;;;;0.20;0.20;;;11.80;99.90;;;;;;5029394;28;20217;-72
2021/01/21 12:46:05;;;;;;;0.10;0.10;;;11.70;99.90;;;;;;5029344;28;20209;-71
2021/01/21 12:48:31;;;;;;;0.52;0.52;;;11.70;99.90;;;;;;5011774;28;20209;-74
2021/01/21 12:50:57;;;;;;;0.20;0.20;;;11.60;99.90;;;;;;5028023;28;20170;-73
2021/01/21 12:53:23;;;;;;;0.28;0.28;;;11.70;99.90;;;;;;5029372;28;20204;-71
2021/01/21 12:55:49;;;;;;;12.45;0.43;;;11.50;99.90;;;;;;5026689;28;20201;-72
2021/01/21 12:58:14;;;;;;;0.30;0.30;;;11.50;99.90;;;;;;5008032;28;20213;-72
2021/01/21 13:00:40;;;;;;;0.10;0.10;;;11.50;99.90;;;;;;5009172;28;20678;-72
2021/01/21 13:03:06;;;;;;;0.15;0.15;;;11.40;99.90;;;;;;5013682;28;20186;-71
2021/01/21 13:05:32;;;;;;;5.50;0.35;;;11.30;99.90;;;;;;5029015;28;20257;-72